Time;durP1;ratioP1;P1;durP2;ratioP2;P2;SDS_P1;SDS_P2;PMS_P1;PMS_P2;Temp;Humidity;BMP_temperature;BMP_pressure;BME280_temperature;BME280_humidity;BME280_pressure;Samples;Min_cycle;Max_cycle;Signal;HPM_P1;HPM_P2
2021/11/13 00:00:10;;;;;;;;;;;21.00;61.60;;;;;;5012414;28;1285;-69
2021/11/13 00:02:35;;;;;;;;;;;21.00;61.70;;;;;;5010153;28;1264;-68
2021/11/13 00:05:00;;;;;;;;;;;21.00;61.70;;;;;;5012331;28;1320;-69
2021/11/13 00:07:26;;;;;;;;;;;21.00;61.70;;;;;;5012442;28;1166;-69
2021/11/13 00:09:51;;;;;;;;;;;21.00;61.80;;;;;;5012131;28;1288;-69
2021/11/13 00:12:17;;;;;;;;;;;21.00;61.80;;;;;;5011614;28;1906;-69
2021/11/13 00:14:45;;;;;;;;;;;21.00;61.80;;;;;;5012628;28;1324;-69
2021/11/13 00:17:12;;;;;;;;;;;21.00;61.80;;;;;;5011449;28;1198;-69
2021/11/13 00:19:37;;;;;;;;;;;20.90;61.80;;;;;;5011830;28;1395;-68
2021/11/13 00:22:03;;;;;;;;;;;20.90;61.80;;;;;;5000071;28;1124;-69
2021/11/13 00:24:28;;;;;;;;;;;20.90;61.80;;;;;;5011990;28;1178;-69
2021/11/13 00:26:54;;;;;;;;;;;20.90;61.80;;;;;;5012237;28;1148;-68
2021/11/13 00:29:19;;;;;;;;;;;20.90;61.80;;;;;;5012510;28;1268;-68
2021/11/13 00:31:45;;;;;;;;;;;20.90;61.90;;;;;;5012330;28;1349;-68
2021/11/13 00:34:10;;;;;;;;;;;20.90;61.90;;;;;;5007869;28;1955;-68
2021/11/13 00:36:35;;;;;;;;;;;20.90;61.90;;;;;;5012294;28;1371;-68
2021/11/13 00:39:01;;;;;;;;;;;20.90;62.00;;;;;;5011797;28;1370;-68
2021/11/13 00:41:26;;;;;;;;;;;20.90;62.00;;;;;;5011425;28;1108;-69
2021/11/13 00:43:52;;;;;;;;;;;20.90;62.00;;;;;;5012113;28;1064;-68
2021/11/13 00:46:17;;;;;;;;;;;20.90;62.00;;;;;;5012169;28;1324;-69
2021/11/13 00:48:43;;;;;;;;;;;20.90;62.10;;;;;;5011349;28;1369;-69
2021/11/13 00:51:08;;;;;;;;;;;20.90;62.00;;;;;;5009921;28;1179;-68
2021/11/13 00:53:33;;;;;;;;;;;20.90;62.00;;;;;;5011899;28;1926;-68
2021/11/13 00:55:59;;;;;;;;;;;20.90;62.10;;;;;;5012143;28;1363;-68
2021/11/13 00:58:25;;;;;;;;;;;20.90;62.10;;;;;;5010856;28;1383;-68
2021/11/13 01:00:51;;;;;;;;;;;20.90;62.10;;;;;;5010588;28;1299;-68
2021/11/13 01:03:16;;;;;;;;;;;20.90;62.10;;;;;;5011478;28;1274;-68
2021/11/13 01:05:42;;;;;;;;;;;20.80;62.10;;;;;;5010604;28;1146;-69
2021/11/13 01:08:07;;;;;;;;;;;20.90;62.20;;;;;;5012826;28;1278;-69
2021/11/13 01:10:33;;;;;;;;;;;20.90;62.20;;;;;;5014907;28;1362;-69
2021/11/13 01:12:58;;;;;;;;;;;20.80;62.20;;;;;;5015301;28;1961;-69
2021/11/13 01:15:23;;;;;;;;;;;20.80;62.10;;;;;;5015134;28;1296;-68
2021/11/13 01:17:49;;;;;;;;;;;20.80;62.20;;;;;;5015318;28;1285;-69
2021/11/13 01:20:15;;;;;;;;;;;20.80;62.20;;;;;;5011558;28;1291;-69
2021/11/13 01:22:40;;;;;;;;;;;20.80;62.20;;;;;;5006435;28;1289;-69
2021/11/13 01:25:06;;;;;;;;;;;20.80;62.20;;;;;;5014474;28;1195;-68
2021/11/13 01:27:31;;;;;;;;;;;20.80;62.30;;;;;;5013890;28;1297;-68
2021/11/13 01:29:57;;;;;;;;;;;20.80;62.30;;;;;;5015043;28;1302;-68
2021/11/13 01:32:22;;;;;;;;;;;20.80;62.30;;;;;;5011106;28;1914;-69
2021/11/13 01:34:48;;;;;;;;;;;20.80;62.30;;;;;;5013134;28;1258;-69
2021/11/13 01:37:13;;;;;;;;;;;20.80;62.30;;;;;;5015076;28;1091;-69
2021/11/13 01:39:38;;;;;;;;;;;20.80;62.30;;;;;;5014190;28;1272;-69
2021/11/13 01:42:04;;;;;;;;;;;20.70;62.30;;;;;;5013741;28;1647;-68
2021/11/13 01:44:29;;;;;;;;;;;20.80;62.30;;;;;;5012407;28;1703;-69
2021/11/13 01:46:55;;;;;;;;;;;20.70;62.30;;;;;;5012482;28;1369;-68
2021/11/13 01:49:20;;;;;;;;;;;20.80;62.30;;;;;;5014251;28;1634;-69
2021/11/13 01:51:49;;;;;;;;;;;20.70;62.30;;;;;;5013875;28;1361;-69
2021/11/13 01:54:14;;;;;;;;;;;20.80;62.40;;;;;;5014662;28;1910;-69
2021/11/13 01:56:40;;;;;;;;;;;20.70;62.30;;;;;;5014293;28;1610;-68
2021/11/13 01:59:06;;;;;;;;;;;20.80;62.40;;;;;;5014564;28;1280;-69
2021/11/13 02:01:31;;;;;;;;;;;20.70;62.40;;;;;;5013928;28;1386;-69
2021/11/13 02:03:57;;;;;;;;;;;20.70;62.40;;;;;;5014282;28;1709;-68
2021/11/13 02:06:23;;;;;;;;;;;20.70;62.40;;;;;;5014488;28;1664;-68
2021/11/13 02:08:48;;;;;;;;;;;20.70;62.40;;;;;;5014280;28;1478;-68
2021/11/13 02:11:14;;;;;;;;;;;20.70;62.40;;;;;;4996004;28;1662;-68
2021/11/13 02:13:40;;;;;;;;;;;20.70;62.40;;;;;;5014307;28;1899;-68
2021/11/13 02:16:08;;;;;;;;;;;20.70;62.50;;;;;;5014113;28;1378;-69
2021/11/13 02:18:33;;;;;;;;;;;20.70;62.50;;;;;;5014003;28;1728;-68
2021/11/13 02:20:59;;;;;;;;;;;20.70;62.50;;;;;;5003638;28;1620;-69
2021/11/13 02:23:24;;;;;;;;;;;20.70;62.50;;;;;;5012077;28;1693;-69
2021/11/13 02:25:50;;;;;;;;;;;20.70;62.50;;;;;;5014190;28;1571;-69
2021/11/13 02:28:16;;;;;;;;;;;20.70;62.50;;;;;;5014109;28;1744;-68
2021/11/13 02:30:42;;;;;;;;;;;20.70;62.50;;;;;;5013603;28;1616;-68
2021/11/13 02:33:07;;;;;;;;;;;20.70;62.50;;;;;;5007151;28;1923;-68
2021/11/13 02:35:33;;;;;;;;;;;20.70;62.50;;;;;;5013939;28;1363;-68
2021/11/13 02:38:19;;;;;;;;;;;20.70;62.50;;;;;;5011921;28;1398;-68
2021/11/13 02:40:45;;;;;;;;;;;20.70;62.50;;;;;;5036473;22;2044;-73
2021/11/13 02:43:10;;;;;;;;;;;20.70;62.50;;;;;;5031086;28;1164;-72
2021/11/13 02:45:36;;;;;;;;;;;20.70;62.50;;;;;;5032437;28;1476;-72
2021/11/13 02:48:02;;;;;;;;;;;20.70;62.50;;;;;;5031890;28;1230;-72
2021/11/13 02:50:27;;;;;;;;;;;20.70;62.40;;;;;;5025671;28;1400;-72
2021/11/13 02:52:54;;;;;;;;;;;20.70;62.50;;;;;;5017726;28;1906;-72
2021/11/13 02:55:20;;;;;;;;;;;20.70;62.50;;;;;;5032134;28;1653;-72
2021/11/13 02:57:45;;;;;;;;;;;20.70;62.50;;;;;;5033150;28;1461;-73
2021/11/13 03:00:12;;;;;;;;;;;20.70;62.50;;;;;;5015728;28;1594;-72
2021/11/13 03:02:37;;;;;;;;;;;20.70;62.50;;;;;;5030852;28;1720;-73
2021/11/13 03:05:03;;;;;;;;;;;20.70;62.50;;;;;;5031963;28;1088;-72
2021/11/13 03:07:29;;;;;;;;;;;20.70;62.50;;;;;;5033247;28;1659;-73
2021/11/13 03:09:54;;;;;;;;;;;20.70;62.50;;;;;;5020421;28;1289;-73
2021/11/13 03:12:20;;;;;;;;;;;20.70;62.50;;;;;;5027775;28;1894;-73
2021/11/13 03:14:45;;;;;;;;;;;20.60;62.50;;;;;;5013316;28;1330;-73
2021/11/13 03:17:12;;;;;;;;;;;20.60;62.50;;;;;;5013438;28;1232;-73
2021/11/13 03:19:37;;;;;;;;;;;20.70;62.50;;;;;;5013428;28;1653;-73
2021/11/13 03:22:03;;;;;;;;;;;20.70;62.50;;;;;;5007184;28;1466;-73
2021/11/13 03:24:29;;;;;;;;;;;20.70;62.60;;;;;;5032751;28;1699;-72
2021/11/13 03:26:54;;;;;;;;;;;20.70;62.60;;;;;;5013492;28;1679;-73
2021/11/13 03:29:22;;;;;;;;;;;20.70;62.60;;;;;;5028604;28;1684;-73
2021/11/13 03:31:48;;;;;;;;;;;20.70;62.60;;;;;;5007416;28;1389;-72
2021/11/13 03:34:13;;;;;;;;;;;20.70;62.60;;;;;;5010182;28;1968;-72
2021/11/13 03:36:39;;;;;;;;;;;20.70;62.60;;;;;;5032799;28;1381;-72
2021/11/13 03:39:04;;;;;;;;;;;20.70;62.70;;;;;;5032720;28;1684;-73
2021/11/13 03:41:30;;;;;;;;;;;20.60;62.60;;;;;;5017024;28;1224;-73
2021/11/13 03:43:55;;;;;;;;;;;20.70;62.70;;;;;;5014194;28;1184;-72
2021/11/13 03:46:21;;;;;;;;;;;20.60;62.60;;;;;;5000238;28;1156;-73
2021/11/13 03:48:46;;;;;;;;;;;20.60;62.60;;;;;;5024665;28;1427;-70
2021/11/13 03:51:12;;;;;;;;;;;20.60;62.60;;;;;;5001938;28;1397;-70
2021/11/13 03:53:37;;;;;;;;;;;20.60;62.60;;;;;;5003172;28;1914;-69
2021/11/13 03:56:03;;;;;;;;;;;20.60;62.70;;;;;;5018537;28;1659;-69
2021/11/13 03:58:28;;;;;;;;;;;20.60;62.70;;;;;;5004858;28;1221;-70
2021/11/13 04:00:53;;;;;;;;;;;20.60;63.50;;;;;;5007127;28;1362;-70
2021/11/13 04:03:19;;;;;;;;;;;20.60;62.70;;;;;;4999291;28;1201;-69
2021/11/13 04:05:44;;;;;;;;;;;20.60;62.70;;;;;;5005002;28;1315;-69
2021/11/13 04:08:10;;;;;;;;;;;20.60;62.70;;;;;;5004994;28;1184;-70
2021/11/13 04:10:35;;;;;;;;;;;20.60;62.70;;;;;;5007361;28;1445;-69
2021/11/13 04:13:01;;;;;;;;;;;20.60;62.80;;;;;;5004690;28;1902;-69
2021/11/13 04:15:26;;;;;;;;;;;20.60;62.80;;;;;;5005996;28;1321;-70
2021/11/13 04:17:52;;;;;;;;;;;20.60;62.70;;;;;;5003236;28;1291;-70
2021/11/13 04:20:17;;;;;;;;;;;20.60;62.80;;;;;;5007496;28;1460;-69
2021/11/13 04:22:43;;;;;;;;;;;20.60;62.80;;;;;;5000332;28;1505;-69
2021/11/13 04:25:08;;;;;;;;;;;20.60;62.80;;;;;;5020081;28;1967;-68
2021/11/13 04:27:34;;;;;;;;;;;20.60;62.80;;;;;;5007344;28;1257;-68
2021/11/13 04:29:59;;;;;;;;;;;20.60;62.80;;;;;;5003870;28;1295;-67
2021/11/13 04:32:29;;;;;;;;;;;20.60;62.80;;;;;;5015309;28;1910;-69
2021/11/13 04:37:22;;;;;;;;;;;20.60;62.70;;;;;;5004121;28;1212;-69
2021/11/13 04:39:48;;;;;;;;;;;20.60;62.70;;;;;;5008628;28;1680;-71
2021/11/13 04:42:13;;;;;;;;;;;20.70;62.70;;;;;;5000636;28;1276;-67
2021/11/13 04:44:39;;;;;;;;;;;20.70;62.50;;;;;;5013255;28;1361;-66
2021/11/13 04:47:05;;;;;;;;;;;20.70;62.40;;;;;;5032801;28;1686;-67
2021/11/13 04:49:31;;;;;;;;;;;20.70;62.30;;;;;;5033095;28;1223;-68
2021/11/13 04:51:57;;;;;;;;;;;20.70;62.20;;;;;;5034055;28;1715;-67
2021/11/13 04:54:22;;;;;;;;;;;20.80;62.20;;;;;;5034940;28;1910;-67
2021/11/13 04:56:50;;;;;;;;;;;20.80;62.10;;;;;;5034906;28;1664;-67
2021/11/13 04:59:16;;;;;;;;;;;20.80;62.00;;;;;;5035339;28;1655;-68
2021/11/13 05:01:41;;;;;;;;;;;20.80;61.90;;;;;;5032821;28;1376;-67
2021/11/13 05:04:06;;;;;;;;;;;20.80;61.80;;;;;;5034538;28;1706;-67
2021/11/13 05:06:32;;;;;;;;;;;20.90;61.80;;;;;;5034631;28;1405;-67
2021/11/13 05:08:57;;;;;;;;;;;20.90;61.70;;;;;;5025582;28;899;-70
2021/11/13 05:11:23;;;;;;;;;;;20.90;61.60;;;;;;5014340;28;1344;-70
2021/11/13 05:13:49;;;;;;;;;;;20.90;61.60;;;;;;5022549;28;1962;-69
2021/11/13 05:16:14;;;;;;;;;;;20.90;61.50;;;;;;5022903;28;1704;-67
2021/11/13 05:18:39;;;;;;;;;;;20.90;61.50;;;;;;5015501;28;1391;-68
2021/11/13 05:21:05;;;;;;;;;;;21.00;61.50;;;;;;5007349;28;1348;-68
2021/11/13 05:23:30;;;;;;;;;;;20.90;61.40;;;;;;5034882;28;1361;-69
2021/11/13 05:25:56;;;;;;;;;;;21.00;61.40;;;;;;5033440;28;1222;-69
2021/11/13 05:28:21;;;;;;;;;;;21.00;61.40;;;;;;5033781;28;1420;-68
2021/11/13 05:30:47;;;;;;;;;;;21.00;61.30;;;;;;5032028;28;1738;-68
2021/11/13 05:33:12;;;;;;;;;;;21.00;61.30;;;;;;5024173;28;1902;-68
2021/11/13 05:35:37;;;;;;;;;;;21.00;61.30;;;;;;5030027;28;1683;-70
2021/11/13 05:38:04;;;;;;;;;;;21.00;61.20;;;;;;5015262;28;1673;-70
2021/11/13 05:40:29;;;;;;;;;;;21.00;61.30;;;;;;5014274;28;1525;-70
2021/11/13 05:42:55;;;;;;;;;;;21.00;61.20;;;;;;5025803;28;1751;-69
2021/11/13 05:45:20;;;;;;;;;;;21.00;61.20;;;;;;5014044;28;1578;-68
2021/11/13 05:47:46;;;;;;;;;;;21.00;61.20;;;;;;5029076;28;1448;-68
2021/11/13 05:50:12;;;;;;;;;;;21.00;61.20;;;;;;5014145;28;1295;-69
2021/11/13 05:52:41;;;;;;;;;;;21.00;61.20;;;;;;5028169;28;1903;-69
2021/11/13 05:55:07;;;;;;;;;;;21.00;61.20;;;;;;5028539;28;1395;-69
2021/11/13 05:57:32;;;;;;;;;;;21.00;61.20;;;;;;5008363;28;2312;-69
2021/11/13 05:59:58;;;;;;;;;;;21.00;61.20;;;;;;4998277;28;1490;-69
2021/11/13 06:02:23;;;;;;;;;;;21.00;61.10;;;;;;5013152;28;1365;-69
2021/11/13 06:04:49;;;;;;;;;;;21.00;61.10;;;;;;5013643;28;2078;-71
2021/11/13 06:07:14;;;;;;;;;;;21.00;61.10;;;;;;5010749;28;1414;-70
2021/11/13 06:09:39;;;;;;;;;;;21.00;61.10;;;;;;5025836;28;1527;-70
2021/11/13 06:12:05;;;;;;;;;;;21.00;61.10;;;;;;5033067;28;1570;-69
2021/11/13 06:14:30;;;;;;;;;;;21.00;61.00;;;;;;5032843;28;1951;-68
2021/11/13 06:16:56;;;;;;;;;;;21.00;61.00;;;;;;5033435;28;1679;-67
2021/11/13 06:19:21;;;;;;;;;;;21.10;61.10;;;;;;5034487;28;1687;-69
2021/11/13 06:21:47;;;;;;;;;;;21.10;61.10;;;;;;5016819;28;1412;-69
2021/11/13 06:24:12;;;;;;;;;;;21.10;61.10;;;;;;5014367;28;1708;-69
2021/11/13 06:26:38;;;;;;;;;;;21.10;61.10;;;;;;5014322;28;1408;-69
2021/11/13 06:29:03;;;;;;;;;;;21.10;61.00;;;;;;5014410;28;1399;-69
2021/11/13 06:31:28;;;;;;;;;;;21.10;61.00;;;;;;5013121;28;1717;-68
2021/11/13 06:33:54;;;;;;;;;;;21.10;61.00;;;;;;5024361;28;1902;-68
2021/11/13 06:36:19;;;;;;;;;;;21.10;61.10;;;;;;5034208;28;1497;-68
2021/11/13 06:38:45;;;;;;;;;;;21.10;61.00;;;;;;5034058;28;1377;-68
2021/11/13 06:41:10;;;;;;;;;;;21.10;61.00;;;;;;5028063;28;1300;-68
2021/11/13 06:43:36;;;;;;;;;;;21.10;61.00;;;;;;5029557;28;1699;-68
2021/11/13 06:46:01;;;;;;;;;;;21.10;61.00;;;;;;5012271;28;1548;-68
2021/11/13 06:48:26;;;;;;;;;;;21.10;61.00;;;;;;5014022;28;1364;-68
2021/11/13 06:50:52;;;;;;;;;;;21.10;61.00;;;;;;5028222;28;1702;-68
2021/11/13 06:53:18;;;;;;;;;;;21.10;61.00;;;;;;5011698;28;2587;-68
2021/11/13 06:55:44;;;;;;;;;;;21.10;60.90;;;;;;5021441;28;1600;-68
2021/11/13 06:58:10;;;;;;;;;;;21.10;61.00;;;;;;5016628;28;1371;-69
2021/11/13 07:00:36;;;;;;;;;;;21.10;61.00;;;;;;5004687;28;1377;-69
2021/11/13 07:03:02;;;;;;;;;;;21.10;60.90;;;;;;5003871;28;1859;-69
2021/11/13 07:05:28;;;;;;;;;;;21.10;60.90;;;;;;5005140;28;1671;-69
2021/11/13 07:07:53;;;;;;;;;;;21.10;60.90;;;;;;5013520;28;1225;-69
2021/11/13 07:10:20;;;;;;;;;;;21.10;60.90;;;;;;5017816;28;1409;-68
2021/11/13 07:12:46;;;;;;;;;;;21.10;61.00;;;;;;4994492;28;1956;-71
2021/11/13 07:15:11;;;;;;;;;;;21.10;60.90;;;;;;5011145;28;1430;-69
2021/11/13 07:17:37;;;;;;;;;;;21.10;60.90;;;;;;5028503;28;1598;-70
2021/11/13 07:20:03;;;;;;;;;;;21.10;60.90;;;;;;5011324;28;1635;-71
2021/11/13 07:22:28;;;;;;;;;;;21.10;60.90;;;;;;5004160;28;1391;-70
2021/11/13 07:24:54;;;;;;;;;;;21.10;60.90;;;;;;5013325;28;1412;-70
2021/11/13 07:27:19;;;;;;;;;;;21.10;60.90;;;;;;5012795;28;1254;-70
2021/11/13 07:29:47;;;;;;;;;;;21.10;60.90;;;;;;5012846;28;1573;-70
2021/11/13 07:32:13;;;;;;;;;;;21.10;60.90;;;;;;5026289;28;1389;-69
2021/11/13 07:34:39;;;;;;;;;;;21.10;60.90;;;;;;5010618;28;2260;-70
2021/11/13 07:37:05;;;;;;;;;;;21.10;60.90;;;;;;5012214;28;1678;-70
2021/11/13 07:39:30;;;;;;;;;;;21.10;60.80;;;;;;5011795;28;1664;-70
2021/11/13 07:41:55;;;;;;;;;;;21.20;60.70;;;;;;5010893;28;1476;-70
2021/11/13 07:44:21;;;;;;;;;;;21.20;60.60;;;;;;5011525;28;1666;-70
2021/11/13 07:46:46;;;;;;;;;;;21.30;60.40;;;;;;5027945;28;1355;-70
2021/11/13 07:49:12;;;;;;;;;;;21.40;60.30;;;;;;5028095;28;1668;-70
2021/11/13 07:51:37;;;;;;;;;;;21.50;60.10;;;;;;5011186;28;1685;-68
2021/11/13 07:54:03;;;;;;;;;;;21.60;59.80;;;;;;5011859;28;1971;-69
2021/11/13 07:56:28;;;;;;;;;;;21.70;59.70;;;;;;5027112;28;1735;-71
2021/11/13 07:58:54;;;;;;;;;;;21.80;59.40;;;;;;5026514;28;1454;-70
2021/11/13 08:01:19;;;;;;;;;;;22.00;59.30;;;;;;5000829;28;1677;-69
2021/11/13 08:03:45;;;;;;;;;;;22.00;59.00;;;;;;5009487;28;1788;-71
2021/11/13 08:06:10;;;;;;;;;;;22.10;58.80;;;;;;5011059;28;1642;-71
2021/11/13 08:08:36;;;;;;;;;;;22.20;58.60;;;;;;5013000;28;1394;-70
2021/11/13 08:11:01;;;;;;;;;;;22.30;58.50;;;;;;5011804;28;1406;-71
2021/11/13 08:13:27;;;;;;;;;;;22.30;58.30;;;;;;5012337;28;1894;-71
2021/11/13 08:15:52;;;;;;;;;;;22.40;58.20;;;;;;5012315;28;1348;-70
2021/11/13 08:18:18;;;;;;;;;;;22.40;58.10;;;;;;5015428;28;1300;-70
2021/11/13 08:20:43;;;;;;;;;;;22.40;58.00;;;;;;5008740;28;1361;-70
2021/11/13 08:23:09;;;;;;;;;;;22.50;58.00;;;;;;5005950;28;1355;-71
2021/11/13 08:25:35;;;;;;;;;;;22.50;57.90;;;;;;5006960;28;1312;-68
2021/11/13 08:28:00;;;;;;;;;;;22.50;57.90;;;;;;5013489;28;1346;-68
2021/11/13 08:30:28;;;;;;;;;;;22.50;57.90;;;;;;5008233;28;1281;-71
2021/11/13 08:32:54;;;;;;;;;;;22.50;57.90;;;;;;5018006;28;1894;-69
2021/11/13 08:35:19;;;;;;;;;;;22.50;57.90;;;;;;5034381;28;1241;-71
2021/11/13 08:37:45;;;;;;;;;;;22.50;57.90;;;;;;5024340;28;1490;-71
2021/11/13 08:42:38;;;;;;;;;;;22.50;57.80;;;;;;5010011;28;1481;-66
2021/11/13 08:45:07;;;;;;;;;;;22.60;57.90;;;;;;5014688;28;1499;-68
2021/11/13 08:47:32;;;;;;;;;;;22.50;57.70;;;;;;5014893;28;1336;-68
2021/11/13 08:49:57;;;;;;;;;;;22.50;57.70;;;;;;4998425;28;1274;-68
2021/11/13 08:52:23;;;;;;;;;;;22.50;57.80;;;;;;5014930;28;1315;-68
2021/11/13 08:54:49;;;;;;;;;;;22.50;57.80;;;;;;5014688;28;1906;-68
2021/11/13 08:57:14;;;;;;;;;;;22.50;57.70;;;;;;5015198;28;1267;-68
2021/11/13 08:59:40;;;;;;;;;;;22.50;57.80;;;;;;5014571;28;1227;-68
2021/11/13 09:02:09;;;;;;;;;;;22.50;57.80;;;;;;5013572;28;1275;-69
2021/11/13 09:04:35;;;;;;;;;;;22.50;57.90;;;;;;5013944;28;1313;-68
2021/11/13 09:07:00;;;;;;;;;;;22.50;57.90;;;;;;5015908;28;1394;-68
2021/11/13 09:09:26;;;;;;;;;;;22.40;57.90;;;;;;5015464;28;1330;-69
2021/11/13 09:11:52;;;;;;;;;;;22.40;58.00;;;;;;5017869;28;1321;-68
2021/11/13 09:14:17;;;;;;;;;;;22.40;58.00;;;;;;5014838;28;1906;-68
2021/11/13 09:16:43;;;;;;;;;;;22.40;58.10;;;;;;5015670;28;1268;-68
2021/11/13 09:19:08;;;;;;;;;;;22.40;58.10;;;;;;5014194;28;1438;-68
2021/11/13 09:21:34;;;;;;;;;;;22.40;58.20;;;;;;5014535;28;1295;-68
2021/11/13 09:24:00;;;;;;;;;;;22.40;58.20;;;;;;5030139;28;1284;-68
2021/11/13 09:26:25;;;;;;;;;;;22.40;58.20;;;;;;5030101;28;1335;-68
2021/11/13 09:28:50;;;;;;;;;;;22.30;58.20;;;;;;5014037;28;1132;-68
2021/11/13 09:31:16;;;;;;;;;;;22.30;58.20;;;;;;5029610;28;1368;-70
2021/11/13 09:33:41;;;;;;;;;;;22.30;58.30;;;;;;5029900;28;1898;-70
2021/11/13 09:36:07;;;;;;;;;;;22.30;58.30;;;;;;5030079;28;1460;-70
2021/11/13 09:38:33;;;;;;;;;;;22.30;58.40;;;;;;5015422;28;1285;-70
2021/11/13 09:40:59;;;;;;;;;;;22.30;58.40;;;;;;5029417;28;1357;-71
2021/11/13 09:43:25;;;;;;;;;;;22.30;58.50;;;;;;5013953;28;1355;-70
2021/11/13 09:45:51;;;;;;;;;;;22.20;58.40;;;;;;5013576;28;969;-70
2021/11/13 09:48:17;;;;;;;;;;;22.20;58.50;;;;;;5014766;28;1561;-70
2021/11/13 09:50:45;;;;;;;;;;;22.20;58.50;;;;;;5014461;28;1373;-70
2021/11/13 09:53:10;;;;;;;;;;;22.20;58.60;;;;;;5029502;28;1975;-69
2021/11/13 09:55:36;;;;;;;;;;;22.20;58.60;;;;;;5029025;28;1177;-70
2021/11/13 09:58:01;;;;;;;;;;;22.20;58.60;;;;;;5013556;28;1304;-70
2021/11/13 10:00:29;;;;;;;;;;;22.20;58.70;;;;;;5029856;28;1320;-70
2021/11/13 10:02:55;;;;;;;;;;;22.20;58.70;;;;;;5014435;28;1291;-71
2021/11/13 10:05:20;;;;;;;;;;;22.20;58.70;;;;;;5014340;28;1270;-69
2021/11/13 10:07:46;;;;;;;;;;;22.20;58.80;;;;;;5014687;28;1301;-71
2021/11/13 10:10:26;;;;;;;;;;;22.20;58.80;;;;;;5013932;28;1358;-70
2021/11/13 10:12:53;;;;;;;;;;;22.20;58.80;;;;;;5029240;28;1911;-71
2021/11/13 10:15:34;;;;;;;;;;;22.20;58.80;;;;;;5014419;28;1304;-71
2021/11/13 10:18:07;;;;;;;;;;;22.10;58.70;;;;;;5029130;28;1322;-71
2021/11/13 10:20:33;;;;;;;;;;;22.20;58.70;;;;;;5013502;28;1502;-71
2021/11/13 10:22:58;;;;;;;;;;;22.20;58.70;;;;;;5011982;28;1344;-71
2021/11/13 10:25:23;;;;;;;;;;;22.20;58.70;;;;;;5014171;28;1296;-71
2021/11/13 10:28:08;;;;;;;;;;;22.20;58.60;;;;;;5013929;28;1314;-71
2021/11/13 10:30:33;;;;;;;;;;;22.20;58.60;;;;;;5013812;28;1346;-71
2021/11/13 10:32:59;;;;;;;;;;;22.20;58.60;;;;;;5013807;28;1950;-71
2021/11/13 10:35:40;;;;;;;;;;;22.20;58.50;;;;;;5013440;28;1266;-71
2021/11/13 10:38:15;;;;;;;;;;;22.30;58.60;;;;;;5013583;28;1375;-71
2021/11/13 10:40:48;;;;;;;;;;;22.20;58.50;;;;;;5013134;28;1341;-71
2021/11/13 10:43:13;;;;;;;;;;;22.30;58.60;;;;;;5029120;28;1406;-70
2021/11/13 10:45:38;;;;;;;;;;;22.30;58.50;;;;;;5013453;28;1243;-71
2021/11/13 10:48:18;;;;;;;;;;;22.30;58.60;;;;;;5013918;28;1376;-71
2021/11/13 10:50:43;;;;;;;;;;;22.30;58.60;;;;;;5013149;28;1330;-71
2021/11/13 10:53:12;;;;;;;;;;;22.20;58.50;;;;;;5027803;28;1902;-71
2021/11/13 10:55:40;;;;;;;;;;;22.30;58.60;;;;;;5013750;28;1247;-71
2021/11/13 10:58:24;;;;;;;;;;;22.30;58.60;;;;;;5012656;28;1082;-71
2021/11/13 11:00:50;;;;;;;;;;;22.30;58.60;;;;;;5027230;28;1348;-71
2021/11/13 11:03:15;;;;;;;;;;;22.30;58.50;;;;;;5012132;28;1265;-71
2021/11/13 11:05:45;;;;;;;;;;;22.30;58.50;;;;;;5012429;28;1112;-71
2021/11/13 11:08:24;;;;;;;;;;;22.30;58.50;;;;;;5010736;28;1291;-71
2021/11/13 11:10:49;;;;;;;;;;;22.30;58.50;;;;;;5012283;28;1305;-71
2021/11/13 11:13:15;;;;;;;;;;;22.30;58.50;;;;;;5011617;28;1898;-71
2021/11/13 11:15:41;;;;;;;;;;;22.30;58.50;;;;;;5013381;28;1272;-71
2021/11/13 11:18:07;;;;;;;;;;;22.30;58.50;;;;;;5011571;28;1128;-70
2021/11/13 11:20:32;;;;;;;;;;;22.30;58.60;;;;;;5011944;28;1313;-71
2021/11/13 11:22:58;;;;;;;;;;;22.20;58.50;;;;;;5010918;28;1469;-71
2021/11/13 11:25:26;;;;;;;;;;;22.20;58.60;;;;;;5013477;28;1167;-70
2021/11/13 11:27:52;;;;;;;;;;;22.20;58.60;;;;;;5028219;28;1354;-71
2021/11/13 11:30:21;;;;;;;;;;;22.20;58.60;;;;;;5012960;28;1267;-71
2021/11/13 11:32:50;;;;;;;;;;;22.20;58.60;;;;;;5012999;28;1949;-71
2021/11/13 11:35:19;;;;;;;;;;;22.20;58.70;;;;;;5028038;28;1291;-71
2021/11/13 11:37:46;;;;;;;;;;;22.20;58.80;;;;;;5012525;28;1327;-71
2021/11/13 11:40:12;;;;;;;;;;;22.20;58.80;;;;;;5012568;28;1353;-71
2021/11/13 11:42:38;;;;;;;;;;;22.20;58.80;;;;;;5012132;28;1182;-71
2021/11/13 11:45:04;;;;;;;;;;;22.20;58.80;;;;;;5011840;28;1258;-71
2021/11/13 11:47:30;;;;;;;;;;;22.20;58.70;;;;;;5012528;28;1305;-71
2021/11/13 11:49:56;;;;;;;;;;;22.20;58.70;;;;;;5011463;28;1253;-71
2021/11/13 11:52:23;;;;;;;;;;;22.30;58.70;;;;;;5011697;28;1314;-71
2021/11/13 11:54:49;;;;;;;;;;;22.30;58.70;;;;;;5012487;28;1915;-70
2021/11/13 11:57:15;;;;;;;;;;;22.30;58.60;;;;;;5012568;28;1133;-71
2021/11/13 11:59:40;;;;;;;;;;;22.30;58.50;;;;;;5011440;28;1277;-71
2021/11/13 12:02:10;;;;;;;;;;;22.30;58.50;;;;;;5012149;28;1267;-71
2021/11/13 12:04:36;;;;;;;;;;;22.40;58.50;;;;;;5012525;28;1343;-71
2021/11/13 12:07:01;;;;;;;;;;;22.40;58.50;;;;;;5012585;28;1312;-70
2021/11/13 12:09:27;;;;;;;;;;;22.40;58.40;;;;;;5011894;28;1138;-71
2021/11/13 12:12:11;;;;;;;;;;;22.40;58.40;;;;;;5011734;28;1381;-71
2021/11/13 12:14:37;;;;;;;;;;;22.40;58.40;;;;;;5012243;28;1998;-70
2021/11/13 12:17:32;;;;;;;;;;;22.40;58.30;;;;;;5011349;28;1280;-71
2021/11/13 12:20:03;;;;;;;;;;;22.40;58.30;;;;;;5003163;28;1417;-71
2021/11/13 12:22:35;;;;;;;;;;;22.40;58.30;;;;;;5011777;28;1309;-71
2021/11/13 12:25:13;;;;;;;;;;;22.40;58.30;;;;;;5012312;28;1203;-71
2021/11/13 12:27:38;;;;;;;;;;;22.40;58.40;;;;;;5012546;28;1483;-71
2021/11/13 12:30:04;;;;;;;;;;;22.40;58.40;;;;;;5012611;28;1303;-71
2021/11/13 12:32:30;;;;;;;;;;;22.40;58.40;;;;;;5011705;28;1375;-70
2021/11/13 12:34:56;;;;;;;;;;;22.40;58.40;;;;;;5012592;28;1902;-71
2021/11/13 12:37:24;;;;;;;;;;;22.40;58.40;;;;;;5012537;28;1263;-70
2021/11/13 12:39:52;;;;;;;;;;;22.40;58.40;;;;;;5011745;28;1315;-71
2021/11/13 12:42:25;;;;;;;;;;;22.40;58.40;;;;;;5010668;28;1225;-72
2021/11/13 12:44:53;;;;;;;;;;;22.40;58.50;;;;;;5012375;28;1130;-71
2021/11/13 12:47:19;;;;;;;;;;;22.40;58.50;;;;;;5011188;28;1357;-72
2021/11/13 12:49:49;;;;;;;;;;;22.30;58.50;;;;;;5010943;28;1278;-71
2021/11/13 12:52:22;;;;;;;;;;;22.30;58.50;;;;;;5011337;28;1352;-71
2021/11/13 12:54:50;;;;;;;;;;;22.30;58.50;;;;;;5010427;28;1914;-71
2021/11/13 12:57:31;;;;;;;;;;;22.30;58.60;;;;;;5012405;28;1123;-71
2021/11/13 12:59:57;;;;;;;;;;;22.30;58.60;;;;;;5005363;28;1273;-70
2021/11/13 13:02:23;;;;;;;;;;;22.30;58.60;;;;;;5026614;28;1349;-71
2021/11/13 13:04:49;;;;;;;;;;;22.30;58.60;;;;;;5030947;28;1293;-71
2021/11/13 13:07:14;;;;;;;;;;;22.30;58.60;;;;;;5015528;28;1263;-71
2021/11/13 13:09:54;;;;;;;;;;;22.30;58.60;;;;;;5015840;28;1273;-72
2021/11/13 13:12:21;;;;;;;;;;;22.30;58.50;;;;;;5014880;28;1281;-71
2021/11/13 13:14:48;;;;;;;;;;;22.40;58.60;;;;;;5014497;28;1906;-71
2021/11/13 13:17:20;;;;;;;;;;;22.30;58.50;;;;;;5013970;28;1285;-70
2021/11/13 13:19:45;;;;;;;;;;;22.30;58.50;;;;;;5009305;28;1870;-72
2021/11/13 13:22:11;;;;;;;;;;;22.30;58.50;;;;;;5013863;28;1201;-72
2021/11/13 13:24:37;;;;;;;;;;;22.30;58.50;;;;;;5015341;28;1123;-72
2021/11/13 13:27:09;;;;;;;;;;;22.30;58.50;;;;;;5014123;28;1304;-72
2021/11/13 13:29:35;;;;;;;;;;;22.30;58.60;;;;;;5014675;28;1325;-72
2021/11/13 13:32:13;;;;;;;;;;;22.30;58.60;;;;;;5015028;28;1205;-72
2021/11/13 13:34:49;;;;;;;;;;;22.30;58.60;;;;;;5012285;28;1906;-72
2021/11/13 13:39:43;;;;;;;;;;;22.30;58.70;;;;;;5030228;28;1191;-72
2021/11/13 13:42:08;;;;;;;;;;;22.30;58.70;;;;;;5029237;28;1250;-72
2021/11/13 13:44:34;;;;;;;;;;;22.30;58.70;;;;;;5014842;28;1448;-72
2021/11/13 13:46:59;;;;;;;;;;;22.30;58.80;;;;;;5014557;28;1418;-72
2021/11/13 13:49:25;;;;;;;;;;;22.20;58.80;;;;;;5014990;28;1080;-72
2021/11/13 13:51:56;;;;;;;;;;;22.20;58.80;;;;;;5012522;28;1422;-72
2021/11/13 13:54:21;;;;;;;;;;;22.20;58.80;;;;;;5014656;28;1891;-72
2021/11/13 13:56:49;;;;;;;;;;;22.20;58.90;;;;;;5014634;28;1095;-72
2021/11/13 13:59:25;;;;;;;;;;;22.20;58.80;;;;;;5013184;28;1321;-72
2021/11/13 14:01:56;;;;;;;;;;;22.20;58.90;;;;;;5013893;28;1308;-72
2021/11/13 14:04:23;;;;;;;;;;;22.20;58.90;;;;;;5013359;28;1128;-72
2021/11/13 14:06:49;;;;;;;;;;;22.20;58.90;;;;;;5014579;28;1387;-72
2021/11/13 14:09:14;;;;;;;;;;;22.20;58.90;;;;;;5014433;28;1131;-72
2021/11/13 14:11:40;;;;;;;;;;;22.20;58.90;;;;;;5012425;28;1414;-72
2021/11/13 14:14:05;;;;;;;;;;;22.10;58.90;;;;;;4995918;28;1894;-71
2021/11/13 14:16:33;;;;;;;;;;;22.10;58.90;;;;;;5013764;28;1397;-72
2021/11/13 14:19:09;;;;;;;;;;;22.10;59.00;;;;;;5013141;28;1301;-71
2021/11/13 14:21:34;;;;;;;;;;;22.10;59.00;;;;;;5011134;28;1967;-72
2021/11/13 14:24:00;;;;;;;;;;;22.10;59.00;;;;;;5014028;28;1116;-72
2021/11/13 14:26:26;;;;;;;;;;;22.10;59.10;;;;;;5012689;28;929;-72
2021/11/13 14:28:52;;;;;;;;;;;22.10;59.10;;;;;;5012900;28;1064;-73
2021/11/13 14:31:25;;;;;;;;;;;22.10;59.10;;;;;;4993759;28;1393;-72
2021/11/13 14:33:52;;;;;;;;;;;22.10;59.10;;;;;;5014052;28;1886;-72